Time;durP1;ratioP1;P1;durP2;ratioP2;P2;SDS_P1;SDS_P2;PMS_P1;PMS_P2;Temp;Humidity;BMP_temperature;BMP_pressure;BME280_temperature;BME280_humidity;BME280_pressure;Samples;Min_cycle;Max_cycle;Signal;HPM_P1;HPM_P2
2023/05/21 00:00:45;;;;;;;18.53;16.83;;;16.40;99.90;;;;;;5048255;28;20571;-68
2023/05/21 00:03:14;;;;;;;18.40;16.90;;;16.40;99.90;;;;;;5048222;28;20219;-68
2023/05/21 00:05:40;;;;;;;25.30;21.13;;;16.30;99.90;;;;;;5048245;28;20180;-68
2023/05/21 00:08:06;;;;;;;20.90;18.67;;;16.30;99.90;;;;;;5038692;28;20416;-68
2023/05/21 00:10:31;;;;;;;20.63;18.63;;;16.20;99.90;;;;;;5034686;28;20183;-68
2023/05/21 00:12:57;;;;;;;20.50;18.60;;;16.10;99.90;;;;;;5034780;28;20172;-68
2023/05/21 00:15:22;;;;;;;18.77;16.87;;;16.10;99.90;;;;;;5034659;28;20204;-68
2023/05/21 00:17:48;;;;;;;19.83;17.90;;;16.10;99.90;;;;;;5034648;28;20552;-68
2023/05/21 00:20:15;;;;;;;19.30;17.33;;;16.00;99.90;;;;;;5034239;28;20244;-68
2023/05/21 00:22:43;;;;;;;20.73;18.73;;;16.00;99.90;;;;;;5034538;28;20165;-68
2023/05/21 00:25:10;;;;;;;20.40;18.50;;;16.00;99.90;;;;;;5034536;28;20425;-68
2023/05/21 00:27:35;;;;;;;21.13;19.10;;;16.00;99.90;;;;;;5034409;28;20423;-68
2023/05/21 00:30:02;;;;;;;20.83;18.93;;;16.00;99.90;;;;;;5034113;28;20445;-68
2023/05/21 00:32:27;;;;;;;21.53;19.47;;;16.00;99.90;;;;;;5034429;28;20167;-68
2023/05/21 00:34:53;;;;;;;20.40;18.47;;;15.90;99.90;;;;;;5034374;28;20478;-68
2023/05/21 00:37:19;;;;;;;21.00;18.87;;;15.90;99.90;;;;;;5034421;28;20205;-68
2023/05/21 00:39:45;;;;;;;22.10;19.83;;;15.80;99.90;;;;;;5033914;28;20194;-68
2023/05/21 00:42:11;;;;;;;20.47;18.57;;;15.80;99.90;;;;;;5034278;28;20474;-68
2023/05/21 00:44:37;;;;;;;20.00;18.23;;;15.70;99.90;;;;;;5034237;28;20549;-68
2023/05/21 00:47:05;;;;;;;22.63;20.47;;;15.70;99.90;;;;;;5034133;28;20767;-68
2023/05/21 00:49:31;;;;;;;24.40;21.80;;;15.70;99.90;;;;;;5033850;28;20441;-68
2023/05/21 00:52:00;;;;;;;23.20;20.90;;;15.70;99.90;;;;;;5034087;28;20416;-68
2023/05/21 00:54:26;;;;;;;21.53;19.60;;;15.70;99.90;;;;;;5033943;28;20417;-68
2023/05/21 00:56:52;;;;;;;20.73;18.43;;;15.60;99.90;;;;;;5033914;28;20461;-68
2023/05/21 00:59:18;;;;;;;22.77;20.67;;;15.60;99.90;;;;;;5033642;28;20818;-68
2023/05/21 01:01:54;;;;;;;21.63;19.47;;;15.60;99.90;;;;;;5034136;28;20174;-68
2023/05/21 01:04:25;;;;;;;22.20;20.30;;;15.60;99.90;;;;;;5033954;28;20509;-68
2023/05/21 01:06:52;;;;;;;22.30;19.73;;;15.60;99.90;;;;;;5033847;28;20859;-68
2023/05/21 01:09:18;;;;;;;22.23;19.20;;;15.60;99.90;;;;;;5033320;28;20487;-68
2023/05/21 01:11:46;;;;;;;23.50;21.20;;;15.60;99.90;;;;;;5033858;28;20469;-68
2023/05/21 01:14:13;;;;;;;23.20;20.80;;;15.50;99.90;;;;;;5033580;28;20424;-68
2023/05/21 01:16:41;;;;;;;23.00;20.70;;;15.40;99.90;;;;;;5033517;28;20461;-68
2023/05/21 01:19:12;;;;;;;23.07;20.43;;;15.40;99.90;;;;;;5032329;28;20819;-68
2023/05/21 01:21:42;;;;;;;23.77;21.33;;;15.30;99.90;;;;;;5033624;28;20439;-68
2023/05/21 01:24:07;;;;;;;22.70;20.50;;;15.30;99.90;;;;;;5033913;28;20428;-68
2023/05/21 01:26:37;;;;;;;23.67;21.37;;;15.30;99.90;;;;;;5033413;28;20480;-68
2023/05/21 01:29:04;;;;;;;23.27;21.10;;;15.20;99.90;;;;;;5033039;28;20286;-68
2023/05/21 01:31:40;;;;;;;24.03;21.63;;;15.20;99.90;;;;;;5033235;28;20449;-68
2023/05/21 01:34:10;;;;;;;24.20;21.80;;;15.10;99.90;;;;;;5033241;28;20447;-68
2023/05/21 01:36:41;;;;;;;24.40;21.97;;;15.10;99.90;;;;;;5033508;28;20480;-68
2023/05/21 01:39:22;;;;;;;23.03;20.77;;;15.20;99.90;;;;;;5032747;28;20975;-68
2023/05/21 01:41:51;;;;;;;22.87;20.70;;;15.20;99.90;;;;;;5033162;28;20524;-68
2023/05/21 01:44:18;;;;;;;22.23;20.10;;;15.20;99.90;;;;;;5033140;28;20830;-68
2023/05/21 01:46:44;;;;;;;23.03;20.73;;;15.20;99.90;;;;;;5032877;28;20425;-68
2023/05/21 01:49:10;;;;;;;24.80;22.30;;;15.10;99.90;;;;;;5032579;28;20536;-68
2023/05/21 01:51:36;;;;;;;23.00;20.80;;;15.10;99.90;;;;;;5032952;28;20421;-68
2023/05/21 01:54:02;;;;;;;27.90;23.20;;;15.10;99.90;;;;;;5032851;28;20417;-68
2023/05/21 01:56:28;;;;;;;23.90;21.63;;;15.10;99.90;;;;;;5032743;28;20878;-68
2023/05/21 01:58:55;;;;;;;23.33;20.50;;;15.10;99.90;;;;;;5032365;28;20292;-68
2023/05/21 02:01:21;;;;;;;23.93;21.60;;;15.10;99.90;;;;;;5032770;28;20514;-68
2023/05/21 02:03:47;;;;;;;26.60;23.77;;;15.10;99.90;;;;;;5032622;28;20421;-68
2023/05/21 02:06:12;;;;;;;22.87;20.53;;;15.10;99.90;;;;;;5032692;28;20180;-68
2023/05/21 02:08:38;;;;;;;23.87;21.50;;;15.10;99.90;;;;;;5032161;28;20238;-68
2023/05/21 02:11:03;;;;;;;22.20;20.00;;;15.10;99.90;;;;;;5032564;28;20175;-68
2023/05/21 02:13:29;;;;;;;23.60;21.23;;;15.20;99.90;;;;;;5032634;28;20532;-68
2023/05/21 02:15:54;;;;;;;26.90;21.93;;;15.10;99.90;;;;;;5032364;28;20260;-68
2023/05/21 02:18:20;;;;;;;23.17;20.97;;;15.10;99.90;;;;;;5032264;28;20194;-68
2023/05/21 02:20:46;;;;;;;23.70;21.30;;;15.10;99.90;;;;;;5032423;28;20175;-68
2023/05/21 02:23:11;;;;;;;23.00;20.63;;;15.10;99.90;;;;;;5032407;28;20171;-68
2023/05/21 02:25:37;;;;;;;22.63;20.30;;;15.00;99.90;;;;;;5032346;28;20174;-68
2023/05/21 02:28:03;;;;;;;25.03;21.83;;;14.90;99.90;;;;;;5032210;28;20253;-68
2023/05/21 02:30:28;;;;;;;24.90;22.23;;;14.80;99.90;;;;;;5031716;28;20529;-68
2023/05/21 02:32:54;;;;;;;23.30;21.10;;;14.80;99.90;;;;;;5032379;28;20185;-68
2023/05/21 02:35:20;;;;;;;22.87;20.70;;;14.80;99.90;;;;;;5032158;28;20178;-68
2023/05/21 02:37:45;;;;;;;23.43;20.97;;;14.90;99.90;;;;;;5032305;28;20181;-68
2023/05/21 02:40:11;;;;;;;21.63;19.63;;;14.80;99.90;;;;;;5031783;28;20661;-68
2023/05/21 02:42:38;;;;;;;23.47;21.13;;;14.80;99.90;;;;;;5032200;28;20713;-68
2023/05/21 02:45:08;;;;;;;26.97;24.40;;;14.80;99.90;;;;;;5032008;28;20448;-67
2023/05/21 02:47:34;;;;;;;24.53;22.03;;;14.80;99.90;;;;;;5032134;28;20427;-68
2023/05/21 02:50:00;;;;;;;24.10;21.60;;;14.80;99.90;;;;;;5031676;28;20449;-68
2023/05/21 02:52:26;;;;;;;24.87;22.37;;;14.70;99.90;;;;;;5031950;28;20178;-68
2023/05/21 02:54:52;;;;;;;25.53;23.03;;;14.70;99.90;;;;;;5032151;28;20413;-68
2023/05/21 02:57:18;;;;;;;21.53;19.47;;;14.80;99.90;;;;;;5031919;28;20456;-68
2023/05/21 02:59:44;;;;;;;24.47;22.00;;;14.80;99.90;;;;;;5031756;28;20311;-68
2023/05/21 03:02:10;;;;;;;23.97;21.57;;;14.70;99.90;;;;;;5031950;28;20166;-67
2023/05/21 03:04:37;;;;;;;23.50;21.30;;;14.70;99.90;;;;;;5031907;28;20424;-68
2023/05/21 03:07:04;;;;;;;23.17;20.70;;;14.70;99.90;;;;;;5031914;28;20538;-68
2023/05/21 03:09:29;;;;;;;24.40;22.10;;;14.70;99.90;;;;;;5031320;28;20464;-68
2023/05/21 03:11:55;;;;;;;24.20;21.83;;;14.60;99.90;;;;;;5031809;28;20424;-68
2023/05/21 03:14:20;;;;;;;24.13;21.50;;;14.60;99.90;;;;;;5032050;28;20182;-68
2023/05/21 03:16:47;;;;;;;23.20;20.87;;;14.60;99.90;;;;;;5031863;28;20202;-68
2023/05/21 03:19:14;;;;;;;25.00;22.60;;;14.60;99.90;;;;;;5031438;28;20228;-68
2023/05/21 03:21:40;;;;;;;24.50;22.00;;;14.60;99.90;;;;;;5031877;28;20844;-68
2023/05/21 03:24:06;;;;;;;24.40;21.77;;;14.60;99.90;;;;;;5031742;28;20562;-68
2023/05/21 03:26:32;;;;;;;23.80;21.23;;;14.60;99.90;;;;;;5031692;28;20479;-68
2023/05/21 03:28:58;;;;;;;24.13;21.83;;;14.50;99.90;;;;;;5031326;28;20198;-67
2023/05/21 03:31:24;;;;;;;23.73;21.43;;;14.50;99.90;;;;;;5031647;28;20421;-68
2023/05/21 03:33:51;;;;;;;23.30;21.00;;;14.50;99.90;;;;;;5031642;28;20175;-68
2023/05/21 03:36:17;;;;;;;24.47;22.10;;;14.40;99.90;;;;;;5031541;28;20453;-68
2023/05/21 03:38:42;;;;;;;25.77;23.17;;;14.40;99.90;;;;;;5031147;28;20443;-68
2023/05/21 03:41:09;;;;;;;25.73;23.03;;;14.50;99.90;;;;;;5031492;28;20470;-68
2023/05/21 03:43:34;;;;;;;25.03;22.57;;;14.40;99.90;;;;;;5034362;28;20181;-68
2023/05/21 03:46:00;;;;;;;25.30;22.70;;;14.40;99.90;;;;;;5035495;28;20424;-68
2023/05/21 03:48:25;;;;;;;25.80;20.63;;;14.40;99.90;;;;;;5034886;28;20286;-68
2023/05/21 03:50:51;;;;;;;24.17;21.57;;;14.40;99.90;;;;;;5035305;28;20170;-68
2023/05/21 03:53:17;;;;;;;26.10;23.43;;;14.40;99.90;;;;;;5035280;28;20179;-68
2023/05/21 03:55:42;;;;;;;25.33;22.80;;;14.30;99.90;;;;;;5034988;28;20202;-68
2023/05/21 03:58:09;;;;;;;25.50;23.10;;;14.30;99.90;;;;;;5034912;28;20177;-68
2023/05/21 04:00:36;;;;;;;25.83;23.20;;;14.30;99.90;;;;;;5035092;28;20178;-68
2023/05/21 04:03:05;;;;;;;25.40;22.90;;;14.30;99.90;;;;;;5035001;28;20416;-68
2023/05/21 04:05:31;;;;;;;24.50;22.07;;;14.30;99.90;;;;;;5035000;28;20555;-68
2023/05/21 04:07:57;;;;;;;24.40;21.80;;;14.30;99.90;;;;;;5034811;28;20500;-68
2023/05/21 04:10:23;;;;;;;24.90;22.43;;;14.30;99.90;;;;;;5034385;28;20460;-67
2023/05/21 04:12:51;;;;;;;25.30;22.70;;;14.30;99.90;;;;;;5034831;28;20547;-68
2023/05/21 04:15:19;;;;;;;24.53;22.03;;;14.30;99.90;;;;;;5034867;28;20213;-68
2023/05/21 04:17:45;;;;;;;25.27;22.70;;;14.30;99.90;;;;;;5034773;28;20596;-68
2023/05/21 04:20:15;;;;;;;24.57;22.17;;;14.40;99.90;;;;;;5034363;28;20523;-68
2023/05/21 04:22:44;;;;;;;25.57;22.83;;;14.30;99.90;;;;;;5034583;28;20162;-68
2023/05/21 04:25:09;;;;;;;23.63;21.07;;;14.30;99.90;;;;;;5016837;28;20421;-68
2023/05/21 04:27:35;;;;;;;23.00;20.90;;;14.30;99.90;;;;;;5034503;28;20951;-68
2023/05/21 04:30:03;;;;;;;23.80;21.50;;;14.30;99.90;;;;;;5034107;28;20198;-68
2023/05/21 04:32:29;;;;;;;25.40;22.80;;;14.40;99.90;;;;;;5034450;28;20424;-68
2023/05/21 04:34:55;;;;;;;24.43;21.77;;;14.40;99.90;;;;;;5034388;28;20485;-68
2023/05/21 04:37:23;;;;;;;23.70;21.30;;;14.40;99.90;;;;;;5034131;28;20969;-68
2023/05/21 04:39:48;;;;;;;23.00;20.70;;;14.40;99.90;;;;;;5033997;28;20269;-68
2023/05/21 04:42:14;;;;;;;23.67;21.13;;;14.60;99.90;;;;;;5034209;28;20500;-68
2023/05/21 04:44:43;;;;;;;23.70;21.40;;;14.60;99.90;;;;;;5034224;28;20174;-67
2023/05/21 04:47:09;;;;;;;26.50;23.80;;;14.60;99.90;;;;;;5034242;28;20235;-68
2023/05/21 04:49:34;;;;;;;23.10;20.80;;;14.50;99.90;;;;;;5033843;28;20437;-68
2023/05/21 04:52:01;;;;;;;23.77;21.33;;;14.40;99.90;;;;;;5033976;28;20801;-68
2023/05/21 04:54:26;;;;;;;25.93;23.17;;;14.50;99.90;;;;;;5033885;28;20170;-68
2023/05/21 04:56:52;;;;;;;24.97;22.50;;;14.60;99.90;;;;;;5034094;28;20468;-68
2023/05/21 04:59:18;;;;;;;23.47;20.97;;;14.60;99.90;;;;;;5033661;28;20271;-68
2023/05/21 05:01:44;;;;;;;28.20;24.50;;;14.60;99.90;;;;;;5033935;28;20272;-67
2023/05/21 05:04:10;;;;;;;26.30;23.77;;;14.70;99.90;;;;;;5033935;28;20496;-68
2023/05/21 05:06:35;;;;;;;22.60;20.50;;;14.70;99.90;;;;;;5015967;28;20910;-68
2023/05/21 05:09:01;;;;;;;25.20;22.67;;;14.70;99.90;;;;;;5047938;22;20222;-71
2023/05/21 05:11:27;;;;;;;25.13;22.70;;;14.70;99.90;;;;;;5033622;28;20178;-71
2023/05/21 05:13:52;;;;;;;24.00;21.70;;;14.80;99.90;;;;;;5033819;28;20530;-71
2023/05/21 05:16:23;;;;;;;25.30;22.80;;;15.00;99.90;;;;;;5033640;28;20279;-71
2023/05/21 05:18:52;;;;;;;29.77;24.13;;;15.10;99.90;;;;;;5033338;28;20257;-71
2023/05/21 05:21:17;;;;;;;27.03;24.33;;;15.00;99.90;;;;;;5033409;28;20424;-71
2023/05/21 05:23:43;;;;;;;25.13;22.43;;;15.00;99.90;;;;;;5033504;28;20409;-71
2023/05/21 05:26:09;;;;;;;26.53;23.87;;;15.10;99.90;;;;;;5033453;28;20170;-71
2023/05/21 05:28:35;;;;;;;26.83;24.23;;;15.10;99.90;;;;;;5033098;28;20228;-71
2023/05/21 05:31:00;;;;;;;25.03;22.57;;;15.20;99.90;;;;;;5033329;28;20413;-72
2023/05/21 05:33:26;;;;;;;25.97;23.17;;;15.30;99.90;;;;;;5033276;28;20170;-71
2023/05/21 05:35:52;;;;;;;24.33;22.00;;;15.50;99.90;;;;;;5033105;28;20557;-71
2023/05/21 05:38:17;;;;;;;25.03;22.70;;;15.60;99.90;;;;;;5032818;28;20174;-72
2023/05/21 05:40:43;;;;;;;25.10;22.50;;;15.60;99.90;;;;;;5033228;28;20558;-71
2023/05/21 05:43:08;;;;;;;23.97;21.40;;;15.70;99.90;;;;;;5033152;28;20175;-72
2023/05/21 05:45:34;;;;;;;23.93;21.53;;;16.00;99.90;;;;;;5033084;28;20639;-71
2023/05/21 05:48:00;;;;;;;23.80;21.50;;;16.20;99.90;;;;;;5033001;28;20170;-71
2023/05/21 05:50:26;;;;;;;25.20;22.90;;;16.40;99.90;;;;;;5032596;28;20580;-71
2023/05/21 05:52:51;;;;;;;23.90;21.70;;;16.40;99.90;;;;;;5032864;28;20176;-71
2023/05/21 05:55:17;;;;;;;23.73;21.47;;;16.50;99.90;;;;;;5032963;28;20791;-71
2023/05/21 05:57:42;;;;;;;22.63;20.50;;;16.60;99.90;;;;;;5032880;28;20173;-72
2023/05/21 06:00:09;;;;;;;23.40;21.00;;;16.80;99.90;;;;;;5032422;28;20277;-71
2023/05/21 06:02:35;;;;;;;22.77;20.50;;;16.90;99.90;;;;;;5032776;28;20686;-71
2023/05/21 06:05:01;;;;;;;24.43;21.80;;;17.00;99.90;;;;;;5032143;28;20417;-71
2023/05/21 06:07:27;;;;;;;24.70;22.40;;;17.10;99.90;;;;;;5032753;28;20455;-71
2023/05/21 06:09:52;;;;;;;24.97;22.57;;;17.10;99.90;;;;;;5032229;28;20985;-71
2023/05/21 06:12:18;;;;;;;23.10;20.53;;;17.00;99.90;;;;;;5032554;28;20185;-71
2023/05/21 06:14:44;;;;;;;23.33;21.20;;;17.10;99.90;;;;;;5032567;28;20224;-72
2023/05/21 06:17:10;;;;;;;23.37;21.13;;;17.40;99.90;;;;;;5032406;28;20289;-71
2023/05/21 06:19:36;;;;;;;23.47;21.20;;;17.50;99.90;;;;;;5032018;28;20476;-71
2023/05/21 06:22:01;;;;;;;24.17;22.00;;;17.50;99.90;;;;;;5032375;28;20425;-71
2023/05/21 06:24:29;;;;;;;26.30;21.43;;;17.60;99.90;;;;;;5032358;28;20549;-71
2023/05/21 06:26:54;;;;;;;23.20;21.00;;;17.80;99.90;;;;;;5032390;28;20159;-72
2023/05/21 06:29:20;;;;;;;23.77;21.20;;;17.90;99.90;;;;;;5031970;28;20440;-71
2023/05/21 06:31:46;;;;;;;20.70;18.80;;;18.00;99.90;;;;;;5032294;28;20174;-71
2023/05/21 06:34:11;;;;;;;21.23;19.43;;;18.00;99.90;;;;;;5032189;28;20170;-71
2023/05/21 06:36:37;;;;;;;23.63;21.53;;;18.20;99.90;;;;;;5032309;28;20202;-72
2023/05/21 06:39:02;;;;;;;22.07;20.07;;;18.30;99.90;;;;;;5031793;28;20186;-71
2023/05/21 06:41:28;;;;;;;21.50;19.60;;;18.40;99.90;;;;;;5032206;28;20168;-72
2023/05/21 06:43:54;;;;;;;22.30;20.30;;;18.60;99.90;;;;;;5032144;28;20252;-72
2023/05/21 06:46:19;;;;;;;22.90;20.70;;;18.60;99.90;;;;;;5032083;28;20173;-72
2023/05/21 06:48:45;;;;;;;20.43;18.73;;;18.80;99.90;;;;;;5031681;28;20277;-71
2023/05/21 06:51:11;;;;;;;19.60;18.00;;;18.70;99.90;;;;;;5032054;28;20596;-72
2023/05/21 06:53:36;;;;;;;20.20;18.20;;;18.70;99.90;;;;;;5032014;28;20651;-72
2023/05/21 06:56:02;;;;;;;23.03;20.80;;;18.80;99.90;;;;;;5031966;28;20461;-72
2023/05/21 06:58:30;;;;;;;24.13;21.63;;;19.00;99.90;;;;;;5031652;28;20173;-72
2023/05/21 07:01:00;;;;;;;20.93;19.13;;;19.10;99.90;;;;;;5031999;28;20257;-72
2023/05/21 07:03:26;;;;;;;20.80;18.97;;;19.20;99.90;;;;;;5031932;28;20839;-72
2023/05/21 07:05:52;;;;;;;20.67;18.87;;;19.40;99.90;;;;;;5031893;28;20421;-72
2023/05/21 07:08:18;;;;;;;22.60;19.20;;;19.60;99.90;;;;;;5031603;28;20420;-72
2023/05/21 07:10:45;;;;;;;20.67;18.70;;;19.80;99.90;;;;;;5031729;28;20456;-72
2023/05/21 07:13:10;;;;;;;20.10;18.33;;;20.10;99.90;;;;;;5031825;28;20966;-72
2023/05/21 07:15:36;;;;;;;18.73;16.80;;;20.20;99.90;;;;;;5031759;28;20420;-72
2023/05/21 07:18:02;;;;;;;19.80;17.87;;;20.30;99.90;;;;;;5033527;28;20170;-72
2023/05/21 07:20:27;;;;;;;19.90;18.20;;;20.40;99.90;;;;;;5035520;28;20265;-72
2023/05/21 07:22:53;;;;;;;19.20;17.30;;;20.40;99.90;;;;;;5035705;28;20424;-72
2023/05/21 07:25:19;;;;;;;20.50;18.60;;;20.20;99.90;;;;;;5035725;28;20178;-72
2023/05/21 07:27:44;;;;;;;17.90;16.30;;;20.20;99.90;;;;;;5035830;28;20166;-72
2023/05/21 07:30:10;;;;;;;18.57;17.07;;;20.40;99.90;;;;;;5035350;28;20194;-72
2023/05/21 07:32:35;;;;;;;18.77;17.17;;;20.80;99.90;;;;;;5035488;28;20174;-72
2023/05/21 07:35:01;;;;;;;18.80;17.20;;;20.90;99.90;;;;;;5035522;28;20181;-72
2023/05/21 07:37:27;;;;;;;18.23;16.43;;;21.00;99.90;;;;;;5035395;28;20256;-72
2023/05/21 07:39:54;;;;;;;16.77;15.10;;;21.20;99.90;;;;;;5035141;28;20903;-72
2023/05/21 07:42:20;;;;;;;18.70;17.10;;;21.20;99.90;;;;;;5035385;28;20185;-72
2023/05/21 07:44:45;;;;;;;15.83;14.43;;;21.40;99.90;;;;;;5035332;28;20494;-72
2023/05/21 07:47:11;;;;;;;17.43;15.87;;;21.50;99.90;;;;;;5035176;28;20210;-72
2023/05/21 07:49:36;;;;;;;17.93;16.27;;;21.60;99.90;;;;;;5034877;28;20194;-72
2023/05/21 07:52:02;;;;;;;16.90;15.30;;;21.40;99.90;;;;;;5035354;28;20174;-72
2023/05/21 07:54:27;;;;;;;17.10;15.63;;;21.60;99.90;;;;;;5035162;28;20178;-72
2023/05/21 07:56:53;;;;;;;16.60;15.10;;;21.80;99.90;;;;;;5035072;28;20245;-73
2023/05/21 07:59:18;;;;;;;16.60;15.10;;;22.10;99.90;;;;;;5034799;28;20190;-73
2023/05/21 08:01:44;;;;;;;16.83;15.23;;;22.30;99.90;;;;;;5034919;28;20178;-74
2023/05/21 08:04:09;;;;;;;16.00;14.60;;;22.30;99.90;;;;;;5034959;28;20581;-75
2023/05/21 08:06:36;;;;;;;17.70;15.80;;;22.60;99.90;;;;;;5034956;28;20225;-75
2023/05/21 08:09:02;;;;;;;15.53;14.33;;;23.00;99.90;;;;;;5034506;28;20228;-75
2023/05/21 08:11:28;;;;;;;16.60;15.20;;;23.50;99.90;;;;;;5034945;28;20432;-75
2023/05/21 08:13:55;;;;;;;16.47;15.07;;;23.70;99.90;;;;;;5034886;28;20428;-75
2023/05/21 08:16:22;;;;;;;15.90;14.50;;;23.50;99.90;;;;;;5034640;28;20190;-75
2023/05/21 08:18:48;;;;;;;15.33;14.13;;;23.40;99.90;;;;;;5034521;28;20444;-75
2023/05/21 08:21:13;;;;;;;15.97;14.60;;;23.40;99.90;;;;;;5034701;28;20922;-75
2023/05/21 08:23:39;;;;;;;15.50;14.17;;;23.40;99.90;;;;;;5034615;28;20467;-75
2023/05/21 08:26:05;;;;;;;16.17;14.57;;;23.50;99.90;;;;;;5034634;28;20174;-75
2023/05/21 08:28:31;;;;;;;15.53;14.23;;;23.90;99.90;;;;;;5033764;28;20167;-75
2023/05/21 08:30:56;;;;;;;18.20;16.47;;;24.40;99.90;;;;;;5034491;28;20504;-75
2023/05/21 08:33:22;;;;;;;16.63;15.03;;;24.70;99.90;;;;;;5034326;28;20651;-75
2023/05/21 08:35:47;;;;;;;16.00;14.50;;;24.60;99.90;;;;;;5034395;28;20190;-75
2023/05/21 08:38:15;;;;;;;16.90;15.50;;;24.80;99.90;;;;;;5034176;28;20170;-75
2023/05/21 08:40:41;;;;;;;15.10;13.80;;;24.70;99.90;;;;;;5034359;28;20252;-75
2023/05/21 08:43:11;;;;;;;16.00;14.63;;;24.70;99.90;;;;;;5034277;28;20409;-75
2023/05/21 08:45:41;;;;;;;15.67;14.37;;;25.20;99.90;;;;;;5034196;28;20166;-75
2023/05/21 08:48:10;;;;;;;15.73;14.40;;;25.50;99.90;;;;;;5034011;28;20421;-75
2023/05/21 08:50:36;;;;;;;17.17;15.57;;;25.70;99.90;;;;;;5033976;28;20439;-75
2023/05/21 08:53:01;;;;;;;16.97;15.53;;;25.80;99.90;;;;;;5034035;28;20417;-75
2023/05/21 08:55:27;;;;;;;16.80;15.40;;;25.90;99.90;;;;;;5033995;28;20176;-75
2023/05/21 08:57:53;;;;;;;16.63;15.23;;;25.90;99.90;;;;;;5033942;28;20547;-75
2023/05/21 09:00:19;;;;;;;17.47;15.80;;;25.60;99.90;;;;;;5033652;28;20194;-75
2023/05/21 09:02:45;;;;;;;15.80;14.50;;;25.70;99.90;;;;;;5033902;28;20413;-75
2023/05/21 09:05:12;;;;;;;15.80;14.53;;;25.50;99.90;;;;;;5033775;28;20417;-75
2023/05/21 09:07:59;;;;;;;16.43;15.23;;;25.40;99.90;;;;;;5033811;28;20637;-75
2023/05/21 09:10:33;;;;;;;16.67;15.27;;;25.70;99.90;;;;;;5033357;28;20996;-74
2023/05/21 09:12:59;;;;;;;17.20;15.77;;;26.10;99.90;;;;;;5033794;28;20436;-75
2023/05/21 09:15:25;;;;;;;16.43;15.10;;;25.90;99.90;;;;;;5033689;28;20925;-75
2023/05/21 09:17:51;;;;;;;17.07;15.33;;;26.30;99.90;;;;;;5033593;28;20174;-75
2023/05/21 09:20:17;;;;;;;17.63;15.93;;;26.60;99.90;;;;;;5033200;28;20849;-74
2023/05/21 09:22:47;;;;;;;17.20;15.80;;;26.80;99.90;;;;;;5033485;28;20216;-75
2023/05/21 09:25:15;;;;;;;16.87;15.57;;;26.80;99.90;;;;;;5033802;28;20535;-74
2023/05/21 09:27:41;;;;;;;17.60;16.10;;;26.80;99.90;;;;;;5033623;28;20425;-74
2023/05/21 09:30:11;;;;;;;16.60;15.30;;;27.00;99.90;;;;;;5033040;28;20511;-74
2023/05/21 09:32:38;;;;;;;17.13;15.70;;;26.90;99.90;;;;;;5033300;28;20178;-74
2023/05/21 09:35:12;;;;;;;18.70;17.10;;;27.00;99.90;;;;;;5033333;28;20424;-74
2023/05/21 09:37:44;;;;;;;16.10;14.80;;;27.10;99.90;;;;;;5033134;28;20459;-74
2023/05/21 09:40:11;;;;;;;17.10;15.70;;;27.40;99.90;;;;;;5032051;28;20949;-74
2023/05/21 09:42:40;;;;;;;16.60;15.20;;;27.60;99.90;;;;;;5033226;28;20854;-74
2023/05/21 09:45:09;;;;;;;16.13;14.93;;;27.80;99.90;;;;;;5033006;28;20425;-74
2023/05/21 09:47:45;;;;;;;16.47;15.13;;;28.00;99.90;;;;;;5033031;28;20787;-74
2023/05/21 09:50:18;;;;;;;16.43;14.93;;;28.00;99.90;;;;;;5032767;28;20432;-74
2023/05/21 09:52:44;;;;;;;16.40;15.10;;;28.10;99.90;;;;;;5033006;28;20831;-74
2023/05/21 09:55:11;;;;;;;16.13;14.83;;;28.40;99.90;;;;;;5032920;28;20513;-71
2023/05/21 09:57:44;;;;;;;16.83;15.43;;;28.50;99.10;;;;;;5032889;28;20457;-74
2023/05/21 10:00:17;;;;;;;17.37;15.87;;;28.60;98.70;;;;;;5032462;28;20441;-74
2023/05/21 10:02:53;;;;;;;15.70;14.50;;;29.30;97.80;;;;;;5032781;28;20505;-72
2023/05/21 10:05:19;;;;;;;15.30;14.10;;;29.70;96.50;;;;;;5032732;28;20466;-72
2023/05/21 10:07:50;;;;;;;15.40;14.30;;;30.60;96.60;;;;;;5032136;28;20413;-74
2023/05/21 10:10:18;;;;;;;14.87;13.67;;;31.10;95.00;;;;;;5032129;28;20464;-72
2023/05/21 10:12:46;;;;;;;15.63;14.47;;;30.80;94.60;;;;;;5032797;28;20926;-72
2023/05/21 10:15:19;;;;;;;16.03;14.83;;;31.20;93.80;;;;;;5032622;28;20421;-72
2023/05/21 10:17:47;;;;;;;15.43;14.13;;;31.00;92.90;;;;;;5032427;28;20456;-72
2023/05/21 10:20:12;;;;;;;15.43;14.20;;;30.50;93.30;;;;;;5032088;28;20433;-72
2023/05/21 10:22:39;;;;;;;15.87;14.57;;;30.00;92.90;;;;;;5032444;28;20424;-72
2023/05/21 10:25:06;;;;;;;14.80;13.70;;;29.70;92.80;;;;;;5031073;28;20181;-72
2023/05/21 10:27:33;;;;;;;14.97;13.57;;;30.10;93.00;;;;;;5032340;28;20413;-72
2023/05/21 10:30:00;;;;;;;15.50;14.40;;;30.50;91.90;;;;;;5031943;28;20490;-74
2023/05/21 10:32:26;;;;;;;16.10;14.80;;;30.60;92.00;;;;;;5032234;28;20452;-74
2023/05/21 10:34:56;;;;;;;15.97;14.87;;;31.10;91.00;;;;;;5032138;28;20474;-72
2023/05/21 10:37:26;;;;;;;15.00;13.90;;;31.40;90.40;;;;;;5032004;28;20457;-71
2023/05/21 10:39:52;;;;;;;13.63;12.60;;;31.70;88.80;;;;;;5031799;28;20992;-71
2023/05/21 10:42:30;;;;;;;12.90;11.90;;;31.90;87.80;;;;;;5032286;28;20431;-74
2023/05/21 10:45:25;;;;;;;12.33;11.43;;;31.40;87.40;;;;;;5032121;28;20405;-74
2023/05/21 10:48:00;;;;;;;13.03;11.93;;;31.90;86.20;;;;;;5032014;28;20960;-74
2023/05/21 10:50:43;;;;;;;12.93;11.97;;;32.10;85.50;;;;;;5031756;28;20437;-72
2023/05/21 10:53:23;;;;;;;12.93;11.80;;;32.30;84.00;;;;;;5031955;28;20479;-72
2023/05/21 10:56:08;;;;;;;14.67;13.23;;;32.50;82.50;;;;;;5031853;28;20926;-71
2023/05/21 10:59:14;;;;;;;14.80;13.70;;;31.90;81.00;;;;;;5031561;28;20946;-71
2023/05/21 11:01:40;;;;;;;11.40;10.60;;;32.10;82.80;;;;;;5032041;28;20439;-74
2023/05/21 11:04:06;;;;;;;13.07;11.97;;;32.50;81.40;;;;;;5031935;28;20496;-74
2023/05/21 11:06:32;;;;;;;13.77;12.87;;;32.60;80.20;;;;;;5031616;28;20506;-74
2023/05/21 11:09:14;;;;;;;11.67;10.80;;;32.30;79.30;;;;;;5032016;28;20209;-71
2023/05/21 11:11:43;;;;;;;13.47;12.23;;;32.70;79.60;;;;;;5031996;28;20192;-71
2023/05/21 11:14:25;;;;;;;12.43;11.53;;;33.00;77.50;;;;;;5031837;28;20514;-71
2023/05/21 11:16:50;;;;;;;12.70;11.90;;;33.30;78.30;;;;;;5031722;28;20590;-72
2023/05/21 11:19:16;;;;;;;13.10;12.10;;;33.00;76.70;;;;;;5031442;28;20904;-71
2023/05/21 11:21:42;;;;;;;14.13;12.83;;;33.20;76.00;;;;;;5031815;28;20633;-71
2023/05/21 11:24:09;;;;;;;14.83;13.73;;;33.10;75.50;;;;;;5031744;28;20502;-71
2023/05/21 11:26:47;;;;;;;13.53;12.50;;;33.20;75.40;;;;;;5031816;28;20182;-71
2023/05/21 11:29:13;;;;;;;12.40;11.57;;;33.00;75.10;;;;;;5031309;28;20444;-71
2023/05/21 11:31:48;;;;;;;13.47;12.47;;;33.10;74.90;;;;;;5031716;28;20424;-71
2023/05/21 11:34:13;;;;;;;12.47;11.60;;;33.00;74.20;;;;;;5031673;28;20413;-71
2023/05/21 11:36:41;;;;;;;12.97;12.10;;;32.70;75.10;;;;;;5031586;28;20537;-71
2023/05/21 11:39:14;;;;;;;11.60;10.70;;;33.00;73.90;;;;;;5031208;28;20191;-71
2023/05/21 11:42:00;;;;;;;13.00;12.10;;;33.20;73.20;;;;;;5031568;28;20423;-71
2023/05/21 11:44:46;;;;;;;13.00;11.90;;;33.50;73.00;;;;;;5031540;28;20427;-74
2023/05/21 11:47:16;;;;;;;12.80;11.80;;;33.00;72.90;;;;;;5031532;28;20913;-74
2023/05/21 11:49:42;;;;;;;13.10;12.10;;;33.30;73.10;;;;;;5031133;28;20455;-71
2023/05/21 11:52:09;;;;;;;13.23;12.30;;;33.40;72.30;;;;;;5031315;28;20515;-71
2023/05/21 11:54:54;;;;;;;13.77;12.50;;;33.10;72.60;;;;;;5031454;28;20458;-71
2023/05/21 11:57:20;;;;;;;13.10;12.10;;;32.90;72.70;;;;;;5031400;28;20503;-71
2023/05/21 11:59:48;;;;;;;13.90;12.80;;;32.70;73.60;;;;;;5031039;28;20464;-71
2023/05/21 12:02:16;;;;;;;13.63;12.50;;;32.70;72.90;;;;;;5031352;28;20431;-71
2023/05/21 12:04:41;;;;;;;11.80;10.83;;;32.40;73.20;;;;;;5034218;28;20427;-71
2023/05/21 12:07:10;;;;;;;12.90;11.90;;;32.20;74.10;;;;;;5034681;28;20412;-71
2023/05/21 12:09:43;;;;;;;11.37;10.57;;;32.50;74.30;;;;;;5034446;28;20198;-71
2023/05/21 12:12:10;;;;;;;13.23;12.23;;;32.90;72.50;;;;;;5034793;28;20417;-71
2023/05/21 12:14:36;;;;;;;12.73;11.60;;;32.80;72.70;;;;;;5034831;28;20421;-71
2023/05/21 12:17:03;;;;;;;12.80;11.73;;;32.70;73.10;;;;;;5034701;28;20460;-71
2023/05/21 12:19:33;;;;;;;13.13;12.23;;;32.50;73.60;;;;;;5034378;28;20995;-71
2023/05/21 12:22:03;;;;;;;13.60;12.50;;;32.00;72.70;;;;;;5034816;28;20512;-71
2023/05/21 12:24:32;;;;;;;12.57;11.67;;;31.90;73.40;;;;;;5034637;28;21016;-71
2023/05/21 12:27:00;;;;;;;12.70;11.60;;;32.00;73.20;;;;;;5034534;28;20429;-71
2023/05/21 12:29:30;;;;;;;13.60;12.30;;;31.90;73.30;;;;;;5034267;28;20452;-71